Time;durP1;ratioP1;P1;durP2;ratioP2;P2;SDS_P1;SDS_P2;PMS_P1;PMS_P2;Temp;Humidity;BMP_temperature;BMP_pressure;BME280_temperature;BME280_humidity;BME280_pressure;Samples;Min_cycle;Max_cycle;Signal;HPM_P1;HPM_P2
2023/03/23 00:01:36;;;;;;;4.20;2.78;;;;;;;10.67;100.00;100164.34;5055547;28;20492;-87
2023/03/23 00:04:08;;;;;;;4.28;2.70;;;;;;;10.61;100.00;100174.91;5054663;28;20076;-87
2023/03/23 00:06:34;;;;;;;3.58;2.50;;;;;;;10.58;100.00;100169.78;5055832;28;20035;-87
2023/03/23 00:09:02;;;;;;;3.58;2.38;;;;;;;10.58;100.00;100178.44;5055164;28;20048;-87
2023/03/23 00:11:30;;;;;;;3.03;2.40;;;;;;;10.62;100.00;100181.81;5055346;28;20029;-87
2023/03/23 00:14:00;;;;;;;3.97;2.50;;;;;;;10.60;100.00;100163.66;5055025;28;20040;-87
2023/03/23 00:16:30;;;;;;;3.53;2.50;;;;;;;10.60;100.00;100166.25;5055861;28;20052;-88
2023/03/23 00:18:57;;;;;;;3.28;2.40;;;;;;;10.62;100.00;100176.63;5055108;28;20041;-87
2023/03/23 00:21:25;;;;;;;4.82;2.58;;;;;;;10.58;100.00;100183.63;5055482;28;20029;-87
2023/03/23 00:23:51;;;;;;;3.72;2.38;;;;;;;10.60;100.00;100174.03;5054675;28;20087;-87
2023/03/23 00:26:17;;;;;;;4.10;2.55;;;;;;;10.66;100.00;100175.63;5055172;28;20138;-87
2023/03/23 00:28:42;;;;;;;4.57;2.70;;;;;;;10.62;100.00;100166.25;5055510;28;20116;-87
2023/03/23 00:31:09;;;;;;;3.70;2.80;;;;;;;10.70;100.00;100174.66;5054188;28;20116;-88
2023/03/23 00:33:40;;;;;;;4.18;2.85;;;;;;;10.70;100.00;100184.19;5055216;28;20048;-87
2023/03/23 00:36:08;;;;;;;3.72;2.78;;;;;;;10.68;100.00;100183.38;5055411;28;20031;-88
2023/03/23 00:38:34;;;;;;;3.05;2.42;;;;;;;10.65;100.00;100185.16;5054707;28;20033;-87
2023/03/23 00:41:02;;;;;;;4.63;2.38;;;;;;;10.64;100.00;100191.25;5055004;28;20457;-88
2023/03/23 00:43:29;;;;;;;5.05;2.50;;;;;;;10.68;100.00;100188.59;5054975;28;20108;-87
2023/03/23 00:45:55;;;;;;;3.13;2.20;;;;;;;10.66;100.00;100184.28;5053979;28;20021;-87
2023/03/23 00:48:32;;;;;;;2.47;2.08;;;;;;;10.57;100.00;100163.78;5055149;28;20037;-88
2023/03/23 00:50:57;;;;;;;3.35;2.40;;;;;;;10.65;100.00;100163.53;5054627;28;20083;-88
2023/03/23 00:53:23;;;;;;;2.50;2.17;;;;;;;10.70;100.00;100166.00;5054531;28;20025;-88
2023/03/23 00:55:49;;;;;;;4.60;2.40;;;;;;;10.66;100.00;100165.25;5054518;28;20074;-88
2023/03/23 00:58:15;;;;;;;3.15;2.20;;;;;;;10.66;100.00;100171.31;5054889;28;20044;-89
2023/03/23 01:00:41;;;;;;;3.70;2.30;;;;;;;10.64;100.00;100172.22;5055038;28;20108;-88
2023/03/23 01:03:21;;;;;;;3.08;2.50;;;;;;;10.57;100.00;100145.59;5054500;28;20021;-88
2023/03/23 01:05:51;;;;;;;2.85;2.30;;;;;;;10.50;100.00;100131.94;5054397;28;20021;-87
2023/03/23 01:08:18;;;;;;;5.25;2.80;;;;;;;10.53;100.00;100128.41;5053751;28;20052;-88
2023/03/23 01:10:44;;;;;;;5.10;2.92;;;;;;;10.56;100.00;100125.72;5054162;28;20386;-87
2023/03/23 01:13:16;;;;;;;4.22;2.97;;;;;;;10.61;100.00;100146.38;5033855;28;20033;-87
2023/03/23 01:15:42;;;;;;;4.43;3.13;;;;;;;10.59;100.00;100130.81;5033723;28;20104;-87
2023/03/23 01:18:09;;;;;;;4.97;3.10;;;;;;;10.60;100.00;100109.19;5034534;28;20032;-87
2023/03/23 01:20:38;;;;;;;3.88;2.80;;;;;;;10.54;100.00;100111.06;5038273;28;20025;-87
2023/03/23 01:23:03;;;;;;;4.35;2.80;;;;;;;10.57;100.00;100098.91;5034565;28;20088;-88
2023/03/23 01:25:35;;;;;;;5.07;2.77;;;;;;;10.52;100.00;100113.72;5034732;28;20481;-88
2023/03/23 01:28:00;;;;;;;4.22;2.80;;;;;;;10.52;100.00;100120.66;5033959;28;20018;-88
2023/03/23 01:30:26;;;;;;;3.63;2.80;;;;;;;10.51;100.00;100104.25;5034310;28;20087;-88
2023/03/23 01:32:52;;;;;;;5.87;3.10;;;;;;;10.53;100.00;100112.00;5034205;28;20018;-87
2023/03/23 01:35:18;;;;;;;3.53;2.60;;;;;;;10.52;100.00;100111.13;5050684;28;20096;-88
2023/03/23 01:37:44;;;;;;;3.58;2.83;;;;;;;10.52;100.00;100105.09;5054266;28;20032;-88
2023/03/23 01:40:10;;;;;;;2.87;2.50;;;;;;;10.54;100.00;100096.38;5053497;28;20037;-88
2023/03/23 01:42:38;;;;;;;6.00;2.85;;;;;;;10.58;100.00;100104.94;5053561;28;20029;-88
2023/03/23 01:45:24;;;;;;;6.05;3.20;;;;;;;10.68;100.00;100108.13;5053893;28;20100;-87
2023/03/23 01:47:52;;;;;;;;;;;;;;;10.74;100.00;100105.34;5054468;28;20377;-88
2023/03/23 01:50:22;;;;;;;5.22;3.40;;;;;;;10.70;100.00;100107.19;5037110;28;19983;-88
2023/03/23 01:52:48;;;;;;;4.18;2.90;;;;;;;10.73;100.00;100121.81;5033988;28;20049;-87
2023/03/23 01:55:15;;;;;;;4.28;3.03;;;;;;;10.75;100.00;100112.25;5033430;28;20031;-88
2023/03/23 01:57:41;;;;;;;5.38;3.35;;;;;;;10.79;100.00;100106.09;5042708;28;20017;-88
2023/03/23 02:00:14;;;;;;;6.27;3.43;;;;;;;10.87;100.00;100101.53;5054306;28;20086;-88
2023/03/23 02:02:43;;;;;;;6.03;3.45;;;;;;;10.89;100.00;100091.09;5053688;28;20119;-87
2023/03/23 02:05:12;;;;;;;6.85;3.70;;;;;;;10.90;100.00;100091.06;5053424;28;20025;-88
2023/03/23 02:07:37;;;;;;;7.78;3.65;;;;;;;10.93;100.00;100075.38;5053943;28;20024;-88
2023/03/23 02:10:03;;;;;;;6.27;3.30;;;;;;;10.91;100.00;100061.63;5052522;28;20029;-88
2023/03/23 02:12:29;;;;;;;4.97;3.22;;;;;;;10.90;100.00;100072.03;5053530;28;20017;-88
2023/03/23 02:14:57;;;;;;;5.00;3.20;;;;;;;10.92;100.00;100071.06;5053362;28;20409;-89
2023/03/23 02:20:13;;;;;;;6.47;3.22;;;;;;;10.92;100.00;100071.06;5060226;22;20049;-89
2023/03/23 02:22:59;;;;;;;5.68;3.40;;;;;;;10.97;99.87;100070.97;5053820;28;20025;-88
2023/03/23 02:25:46;;;;;;;5.22;3.33;;;;;;;10.96;99.97;100070.09;5053097;28;20029;-89
2023/03/23 02:28:29;;;;;;;6.68;3.33;;;;;;;10.92;99.99;100068.47;5053843;28;20033;-88
2023/03/23 02:31:17;;;;;;;5.20;3.25;;;;;;;10.92;99.86;100071.06;5052765;28;20098;-89
2023/03/23 02:34:01;;;;;;;4.90;3.20;;;;;;;10.93;99.93;100067.59;5054288;28;20067;-89
2023/03/23 02:36:37;;;;;;;5.10;2.95;;;;;;;10.92;100.00;100065.03;5054262;28;20137;-89
2023/03/23 02:39:21;;;;;;;4.45;2.95;;;;;;;10.92;99.74;100058.09;5053699;28;20115;-89
2023/03/23 02:41:54;;;;;;;4.68;2.70;;;;;;;10.93;99.97;100043.38;5053577;28;20033;-89
2023/03/23 02:44:23;;;;;;;4.35;2.63;;;;;;;10.92;99.94;100052.91;5053370;28;20515;-87
2023/03/23 02:46:49;;;;;;;3.53;2.55;;;;;;;10.95;99.78;100052.81;5053817;28;20029;-89
2023/03/23 02:49:17;;;;;;;4.63;2.70;;;;;;;10.92;99.42;100050.31;5054224;28;20049;-89
2023/03/23 02:51:46;;;;;;;5.57;3.35;;;;;;;10.96;98.64;100059.72;5053830;28;20291;-89
2023/03/23 02:54:13;;;;;;;4.95;3.08;;;;;;;10.96;99.18;100059.72;5053700;28;20029;-89
2023/03/23 02:56:40;;;;;;;5.43;3.15;;;;;;;10.97;99.17;100066.63;5053385;28;20032;-89
2023/03/23 02:59:06;;;;;;;3.72;2.80;;;;;;;11.00;99.24;100051.84;5053186;28;20028;-90
2023/03/23 03:01:52;;;;;;;3.83;2.70;;;;;;;11.00;99.23;100062.22;5053522;28;20034;-89
2023/03/23 03:04:20;;;;;;;4.80;2.67;;;;;;;11.00;99.30;100057.88;5052822;28;20029;-88
2023/03/23 03:07:06;;;;;;;4.82;2.80;;;;;;;11.01;99.29;100054.38;5052807;28;20021;-88
2023/03/23 03:09:55;;;;;;;6.38;3.42;;;;;;;11.03;98.93;100054.34;5053653;28;20102;-88
2023/03/23 03:12:25;;;;;;;4.28;3.00;;;;;;;11.03;98.64;100050.00;5053622;28;20032;-88
2023/03/23 03:15:05;;;;;;;4.95;3.08;;;;;;;11.04;98.73;100066.41;5052507;28;20029;-88
2023/03/23 03:17:31;;;;;;;4.35;3.15;;;;;;;11.19;98.15;100059.94;5053151;28;20067;-88
2023/03/23 03:20:06;;;;;;;4.78;3.03;;;;;;;11.07;98.48;100059.41;5052137;28;20021;-88
2023/03/23 03:22:33;;;;;;;5.97;3.10;;;;;;;11.10;98.05;100072.28;5053048;28;20029;-87
2023/03/23 03:25:00;;;;;;;5.43;3.08;;;;;;;11.06;98.08;100057.72;5052924;28;20430;-88
2023/03/23 03:27:26;;;;;;;4.82;3.05;;;;;;;11.07;98.10;100063.75;5054655;28;20052;-88
2023/03/23 03:29:58;;;;;;;4.10;3.10;;;;;;;11.09;98.04;100065.38;5054727;28;20434;-87
2023/03/23 03:32:43;;;;;;;5.82;3.20;;;;;;;11.09;97.97;100064.53;5052939;28;20021;-88
2023/03/23 03:35:10;;;;;;;6.67;3.07;;;;;;;11.07;98.07;100062.00;5052635;28;20027;-89
2023/03/23 03:37:37;;;;;;;4.57;3.00;;;;;;;11.03;98.03;100062.97;5053299;28;20075;-87
2023/03/23 03:40:04;;;;;;;;;;;;;;;11.05;97.98;100061.19;5056837;28;20100;-89
2023/03/23 03:42:29;;;;;;;4.15;3.00;;;;;;;11.03;97.38;100062.16;5056103;28;19917;-88
2023/03/23 03:44:55;;;;;;;4.90;3.20;;;;;;;11.05;97.29;100066.38;5055954;28;20082;-88
2023/03/23 03:47:20;;;;;;;6.23;3.53;;;;;;;11.07;96.44;100069.78;5056130;28;20033;-88
2023/03/23 03:49:45;;;;;;;5.87;3.40;;;;;;;11.07;96.13;100075.00;5056181;28;20070;-87
2023/03/23 03:52:11;;;;;;;4.13;3.10;;;;;;;11.06;96.02;100062.91;5055893;28;20362;-89
2023/03/23 03:54:36;;;;;;;5.10;3.00;;;;;;;11.08;96.77;100061.13;5056463;28;20029;-88
2023/03/23 03:57:01;;;;;;;5.03;2.90;;;;;;;11.06;96.54;100054.25;5056365;28;20501;-88
2023/03/23 03:59:27;;;;;;;4.60;2.70;;;;;;;11.07;96.60;100063.75;5056479;28;20024;-88
2023/03/23 04:01:53;;;;;;;4.03;2.50;;;;;;;11.03;96.43;100081.16;5055581;28;20021;-88
2023/03/23 04:04:19;;;;;;;;;;;;;;;11.07;96.01;100087.09;5056555;28;20096;-88
2023/03/23 04:06:44;;;;;;;5.13;2.80;;;;;;;11.01;95.72;100082.09;5056295;28;19919;-87
2023/03/23 04:09:10;;;;;;;3.63;2.60;;;;;;;11.00;95.94;100083.84;5055440;28;20029;-87
2023/03/23 04:11:35;;;;;;;3.87;2.50;;;;;;;11.02;95.49;100084.66;5056113;28;20523;-88
2023/03/23 04:14:02;;;;;;;4.63;2.53;;;;;;;11.00;95.59;100083.00;5055819;28;20025;-87
2023/03/23 04:16:29;;;;;;;4.97;2.50;;;;;;;11.01;95.35;100087.31;5055400;28;20032;-88
2023/03/23 04:18:55;;;;;;;6.90;2.70;;;;;;;11.00;94.88;100091.63;5055289;28;20044;-88
2023/03/23 04:21:21;;;;;;;4.97;2.55;;;;;;;11.00;94.61;100090.78;5055634;28;20040;-88
2023/03/23 04:23:46;;;;;;;4.50;2.33;;;;;;;10.99;94.28;100089.09;5055484;28;20511;-87
2023/03/23 04:26:13;;;;;;;5.37;2.30;;;;;;;11.01;95.14;100087.31;5056138;28;20465;-89
2023/03/23 04:28:40;;;;;;;3.08;2.00;;;;;;;10.99;95.08;100084.72;5056437;28;20096;-89
2023/03/23 04:31:06;;;;;;;3.67;2.10;;;;;;;11.00;94.47;100093.38;5055313;28;20044;-88
2023/03/23 04:33:31;;;;;;;3.33;2.00;;;;;;;10.99;94.17;100089.09;5055930;28;20373;-88
2023/03/23 04:36:00;;;;;;;4.70;2.00;;;;;;;10.99;93.90;100095.13;5055265;28;20025;-89
2023/03/23 04:38:27;;;;;;;6.72;2.30;;;;;;;10.99;93.15;100104.66;5055924;28;20025;-89
2023/03/23 04:40:53;;;;;;;4.50;2.17;;;;;;;11.03;93.63;100114.91;5055459;28;20060;-89
2023/03/23 04:43:24;;;;;;;4.65;2.00;;;;;;;11.01;93.37;100103.72;5055498;28;20075;-88
2023/03/23 04:45:56;;;;;;;3.78;1.80;;;;;;;11.01;92.70;100108.91;5055395;28;20029;-88
2023/03/23 04:48:26;;;;;;;5.35;1.70;;;;;;;11.04;93.03;100107.97;5055901;28;20162;-89
2023/03/23 04:50:52;;;;;;;3.15;1.88;;;;;;;11.04;93.49;100111.44;5055084;28;20070;-88
2023/03/23 04:53:18;;;;;;;2.43;1.83;;;;;;;11.02;93.29;100113.22;5054967;28;20463;-89
2023/03/23 04:55:47;;;;;;;2.77;1.73;;;;;;;10.98;92.54;100106.38;5055450;28;20017;-89
2023/03/23 04:58:14;;;;;;;3.03;1.85;;;;;;;11.03;93.15;100119.28;5054780;28;20294;-89
2023/03/23 05:00:40;;;;;;;;;;;;;;;11.04;93.58;100113.16;5056052;28;20025;-89
2023/03/23 05:03:09;;;;;;;5.28;1.90;;;;;;;10.98;91.65;100109.00;5054682;28;20399;-87
2023/03/23 05:05:35;;;;;;;3.80;1.85;;;;;;;10.97;92.69;100100.38;5054496;28;20025;-88
2023/03/23 05:08:01;;;;;;;3.23;1.97;;;;;;;11.02;92.29;100114.97;5054794;28;20024;-88
2023/03/23 05:10:26;;;;;;;5.43;2.00;;;;;;;10.99;92.47;100110.69;5055235;28;20067;-87
2023/03/23 05:12:53;;;;;;;4.03;1.90;;;;;;;10.97;92.49;100108.16;5054351;28;20496;-89
2023/03/23 05:15:18;;;;;;;3.88;1.90;;;;;;;10.99;92.78;100108.09;5054616;28;20512;-88
2023/03/23 05:17:44;;;;;;;3.77;1.60;;;;;;;10.99;92.75;100112.44;5055137;28;20080;-89
2023/03/23 05:20:12;;;;;;;4.03;1.63;;;;;;;10.97;92.71;100105.56;5054404;28;20107;-89
2023/03/23 05:22:38;;;;;;;2.22;1.60;;;;;;;10.86;92.71;100094.63;5054992;28;20059;-89
2023/03/23 05:25:08;;;;;;;2.67;1.50;;;;;;;10.91;92.63;100100.56;5054804;28;20052;-88
2023/03/23 05:27:34;;;;;;;7.25;2.30;;;;;;;10.92;92.43;100110.00;5054163;28;20032;-88
2023/03/23 05:30:00;;;;;;;4.97;1.90;;;;;;;10.89;92.70;100115.31;5054584;28;20557;-88
2023/03/23 05:32:28;;;;;;;3.45;1.80;;;;;;;10.88;92.66;100113.63;5054866;28;20477;-89
2023/03/23 05:34:56;;;;;;;4.55;1.90;;;;;;;10.91;92.73;100123.91;5054969;28;20029;-88
2023/03/23 05:37:22;;;;;;;3.47;1.90;;;;;;;11.01;92.73;100121.06;5055563;28;20056;-89
2023/03/23 05:39:47;;;;;;;4.93;2.03;;;;;;;10.91;92.85;100112.66;5055786;28;20377;-88
2023/03/23 05:42:12;;;;;;;3.57;1.63;;;;;;;10.92;92.26;100107.41;5054163;28;20036;-88
2023/03/23 05:44:38;;;;;;;7.20;1.90;;;;;;;10.97;92.47;100117.69;5054484;28;20025;-89
2023/03/23 05:47:03;;;;;;;3.47;1.53;;;;;;;10.89;92.79;100115.31;5031790;22;20080;-89
2023/03/23 05:49:28;;;;;;;3.40;1.67;;;;;;;10.90;92.92;100119.63;5014245;28;20038;-88
2023/03/23 05:51:54;;;;;;;5.93;2.27;;;;;;;10.87;92.69;100124.03;5014501;28;20121;-89
2023/03/23 05:54:19;;;;;;;2.60;1.50;;;;;;;10.82;92.94;100125.03;5013000;28;20030;-88
2023/03/23 05:56:44;;;;;;;3.97;1.83;;;;;;;10.82;93.22;100119.81;5013994;28;20040;-87
2023/03/23 05:59:10;;;;;;;3.80;1.60;;;;;;;10.81;93.46;100120.72;5014345;28;20026;-87
2023/03/23 06:01:36;;;;;;;2.63;1.93;;;;;;;10.80;93.30;100124.19;5013512;28;20026;-87
2023/03/23 06:04:02;;;;;;;5.90;2.10;;;;;;;10.77;93.57;100121.69;5014062;28;20284;-88
2023/03/23 06:06:32;;;;;;;3.23;1.80;;;;;;;10.66;93.51;100108.16;5013687;28;20030;-87
2023/03/23 06:08:58;;;;;;;4.60;1.95;;;;;;;10.66;93.60;100109.03;5013452;28;20022;-87
2023/03/23 06:32:57;;;;;;;3.42;1.63;;;;;;;10.82;93.33;100176.06;4972864;28;20440;-91
2023/03/23 06:35:26;;;;;;;5.90;2.00;;;;;;;10.74;92.69;100157.25;4973367;28;20027;-89
2023/03/23 06:38:26;;;;;;;4.75;1.92;;;;;;;10.85;91.99;100180.34;4971804;28;20039;-89
2023/03/23 06:47:58;;;;;;;4.00;1.80;;;;;;;10.90;92.55;100191.44;5008254;28;20409;-87
2023/03/23 06:50:24;;;;;;;9.57;2.10;;;;;;;10.88;92.13;100193.22;5014179;28;20072;-88
2023/03/23 06:52:50;;;;;;;3.80;1.93;;;;;;;10.84;93.07;100197.66;5013333;28;20026;-89
2023/03/23 06:55:19;;;;;;;5.38;2.10;;;;;;;10.87;92.64;100194.09;5013953;28;20030;-88
2023/03/23 06:57:44;;;;;;;6.07;1.88;;;;;;;10.80;93.25;100209.03;5013375;28;20026;-87
2023/03/23 07:00:13;;;;;;;6.77;1.90;;;;;;;10.77;93.22;100216.88;5013722;28;20053;-87
2023/03/23 07:02:41;;;;;;;5.10;1.80;;;;;;;10.79;93.14;100234.13;5013604;28;20037;-88
2023/03/23 07:05:10;;;;;;;6.50;2.05;;;;;;;10.83;92.22;100211.50;5012681;28;20386;-88
2023/03/23 07:07:40;;;;;;;4.03;1.80;;;;;;;10.81;92.93;100215.88;5013361;28;20026;-90
2023/03/23 07:10:11;;;;;;;5.07;1.95;;;;;;;10.86;92.98;100211.44;5013847;28;20026;-88
2023/03/23 07:12:36;;;;;;;6.47;1.95;;;;;;;10.79;93.28;100218.53;5014010;28;20029;-89
2023/03/23 07:15:07;;;;;;;4.70;1.90;;;;;;;10.76;93.80;100225.56;5018195;28;20110;-90
2023/03/23 07:17:33;;;;;;;5.03;1.92;;;;;;;10.73;94.74;100230.81;5017555;28;20470;-87
2023/03/23 07:20:00;;;;;;;3.60;1.70;;;;;;;10.63;96.35;100233.66;5016603;28;20029;-89
2023/03/23 07:22:25;;;;;;;4.07;2.00;;;;;;;10.54;96.28;100220.06;5017441;28;20444;-88
2023/03/23 07:24:59;;;;;;;4.23;1.93;;;;;;;10.38;97.40;100224.78;5016869;28;20026;-87
2023/03/23 07:27:25;;;;;;;4.18;1.88;;;;;;;10.31;98.37;100235.28;5016039;28;20105;-87
2023/03/23 07:30:19;;;;;;;3.80;1.77;;;;;;;10.22;100.00;100237.22;5016295;28;20452;-87
2023/03/23 07:32:53;;;;;;;5.53;1.90;;;;;;;10.17;100.00;100240.78;5007119;28;20487;-86
2023/03/23 07:35:18;;;;;;;5.03;1.90;;;;;;;10.14;100.00;100256.41;5016149;28;20482;-86
2023/03/23 07:37:45;;;;;;;3.37;1.90;;;;;;;10.04;100.00;100275.66;5016490;28;20026;-87
2023/03/23 07:40:20;;;;;;;3.95;1.80;;;;;;;10.07;99.86;100277.31;5015956;28;20037;-87
2023/03/23 07:42:51;;;;;;;3.97;1.70;;;;;;;9.88;99.03;100269.97;5015493;28;20050;-85
2023/03/23 07:45:23;;;;;;;3.47;1.30;;;;;;;9.58;97.63;100242.06;5015909;28;20034;-86
2023/03/23 07:47:49;;;;;;;2.03;0.77;;;;;;;9.53;96.80;100243.06;5014447;28;20534;-86
2023/03/23 07:50:23;;;;;;;1.13;0.80;;;;;;;9.45;96.99;100239.78;5007727;28;20030;-85
2023/03/23 07:52:58;;;;;;;0.95;0.90;;;;;;;9.36;97.31;100241.66;5014977;28;20087;-86
2023/03/23 07:55:25;;;;;;;2.35;1.00;;;;;;;9.35;96.85;100245.13;5014790;28;20044;-86
2023/03/23 07:57:53;;;;;;;0.80;0.80;;;;;;;9.31;97.42;100265.94;5014077;28;20104;-86
2023/03/23 08:00:23;;;;;;;0.85;0.68;;;;;;;9.38;97.89;100260.59;5014516;28;20029;-87
2023/03/23 08:02:51;;;;;;;0.93;0.70;;;;;;;9.22;98.69;100261.81;5013252;28;20109;-86
2023/03/23 08:05:20;;;;;;;0.80;0.80;;;;;;;9.17;98.41;100261.88;5014785;28;20026;-86
2023/03/23 08:07:47;;;;;;;0.68;0.68;;;;;;;9.23;98.97;100266.09;5015095;28;20026;-85
2023/03/23 08:10:17;;;;;;;;;;;;;;;9.25;99.72;100272.94;5015056;28;20075;-86
2023/03/23 08:12:46;;;;;;;1.70;1.13;;;;;;;9.20;100.00;100263.56;5015207;28;19921;-86
2023/03/23 08:15:29;;;;;;;1.20;1.10;;;;;;;9.24;99.74;100283.31;5013890;28;20450;-85
2023/03/23 08:17:55;;;;;;;1.55;1.13;;;;;;;9.29;100.00;100291.84;5014696;28;20034;-86
2023/03/23 08:20:25;;;;;;;1.60;0.87;;;;;;;9.30;100.00;100278.03;5014479;28;20470;-86
2023/03/23 08:22:55;;;;;;;3.72;1.25;;;;;;;9.42;100.00;100288.16;5014417;28;20105;-87
2023/03/23 08:25:31;;;;;;;1.67;1.23;;;;;;;9.44;100.00;100282.94;5014734;28;20022;-86
2023/03/23 08:28:18;;;;;;;2.58;1.02;;;;;;;9.55;100.00;100285.34;5013853;28;20117;-87
2023/03/23 08:30:43;;;;;;;2.83;1.33;;;;;;;9.52;99.85;100290.56;5014569;28;20030;-87
2023/03/23 08:33:10;;;;;;;1.73;0.90;;;;;;;9.58;99.86;100303.38;5289824;22;20049;-86
2023/03/23 08:35:36;;;;;;;2.40;1.27;;;;;;;9.55;100.00;100291.34;5054547;28;20025;-86
2023/03/23 08:38:11;;;;;;;2.88;1.08;;;;;;;9.54;100.00;100296.56;5053108;28;20052;-86
2023/03/23 08:41:17;;;;;;;2.33;1.35;;;;;;;9.60;100.00;100282.66;5054766;28;20396;-86
2023/03/23 08:43:52;;;;;;;1.05;0.80;;;;;;;9.64;100.00;100285.13;5034011;28;20120;-86
2023/03/23 08:46:24;;;;;;;1.38;0.70;;;;;;;9.65;99.94;100285.97;5034571;28;20025;-86
2023/03/23 08:48:49;;;;;;;0.60;0.60;;;;;;;9.69;100.00;100293.66;5034521;28;20036;-86
2023/03/23 08:51:15;;;;;;;1.00;0.80;;;;;;;9.71;100.00;100293.66;5033733;28;20025;-87
2023/03/23 08:53:59;;;;;;;1.13;0.87;;;;;;;9.79;100.00;100291.75;5034466;28;20022;-86
2023/03/23 08:56:24;;;;;;;1.00;0.90;;;;;;;9.80;100.00;100295.16;5034313;28;20051;-87
2023/03/23 08:58:53;;;;;;;1.73;0.77;;;;;;;9.79;99.49;100291.75;5033292;28;20032;-87
2023/03/23 09:01:19;;;;;;;1.95;1.30;;;;;;;9.88;99.28;100301.06;5034515;28;20022;-87
2023/03/23 09:03:59;;;;;;;2.50;1.60;;;;;;;9.90;99.28;100299.31;5033995;28;20025;-86
2023/03/23 09:06:37;;;;;;;3.33;1.65;;;;;;;9.92;99.91;100307.03;5033568;28;20113;-87
2023/03/23 09:09:15;;;;;;;2.72;1.70;;;;;;;9.98;100.00;100305.16;5034736;28;20039;-86
2023/03/23 09:11:40;;;;;;;2.97;1.70;;;;;;;9.93;100.00;100293.19;5053193;28;20029;-87
2023/03/23 09:14:10;;;;;;;2.43;1.43;;;;;;;9.91;99.85;100276.81;5053869;28;20052;-87
2023/03/23 09:16:48;;;;;;;3.10;1.90;;;;;;;10.09;98.65;100281.59;5054172;28;20036;-87
2023/03/23 09:19:20;;;;;;;1.92;1.42;;;;;;;10.04;99.55;100271.31;5052975;28;20021;-87
2023/03/23 09:21:51;;;;;;;2.13;1.52;;;;;;;10.17;99.02;100287.47;5053870;28;20036;-89
2023/03/23 09:24:29;;;;;;;2.20;1.30;;;;;;;10.30;98.74;100302.75;5054261;28;20028;-87
2023/03/23 09:27:10;;;;;;;2.92;1.48;;;;;;;10.36;99.19;100312.97;5052772;28;20110;-87
2023/03/23 09:29:36;;;;;;;4.72;1.50;;;;;;;10.31;98.62;100297.53;5053943;28;20479;-87
2023/03/23 09:32:02;;;;;;;2.35;1.15;;;;;;;10.38;98.37;100303.47;5053622;28;20032;-87
2023/03/23 09:34:55;;;;;;;2.13;1.20;;;;;;;10.41;98.25;100307.72;5052995;28;20082;-87
2023/03/23 09:37:40;;;;;;;2.13;1.20;;;;;;;10.47;98.37;100305.84;5053377;28;20033;-87
2023/03/23 09:40:13;;;;;;;1.65;1.13;;;;;;;10.55;98.81;100304.78;5061696;28;20148;-87
2023/03/23 09:43:01;;;;;;;2.25;1.20;;;;;;;10.69;98.66;100320.03;5073670;28;20036;-87
2023/03/23 09:45:54;;;;;;;1.80;1.30;;;;;;;10.81;98.17;100312.81;5074005;28;20443;-87
2023/03/23 09:48:54;;;;;;;1.33;1.23;;;;;;;10.99;97.37;100320.16;5072431;28;20082;-87
2023/03/23 09:51:28;;;;;;;3.58;1.23;;;;;;;11.22;98.21;100314.38;5074038;28;20017;-87
2023/03/23 09:53:57;;;;;;;2.85;1.25;;;;;;;11.41;97.59;100307.81;5073443;28;20024;-86
2023/03/23 09:56:27;;;;;;;2.35;1.30;;;;;;;11.61;96.52;100305.53;5054206;28;20063;-87
2023/03/23 09:59:00;;;;;;;2.38;1.25;;;;;;;11.78;96.62;100318.03;5053353;28;20059;-89
2023/03/23 10:01:36;;;;;;;4.47;1.50;;;;;;;11.98;94.88;100313.16;5054068;28;20028;-88
2023/03/23 10:04:11;;;;;;;3.85;1.65;;;;;;;12.02;94.77;100319.97;5049680;22;20053;-89
2023/03/23 10:06:42;;;;;;;2.22;1.30;;;;;;;12.19;94.98;100316.84;5035642;28;20026;-88
2023/03/23 10:09:21;;;;;;;3.72;1.63;;;;;;;12.33;93.61;100321.63;5033127;28;20032;-88
2023/03/23 10:12:22;;;;;;;4.47;1.58;;;;;;;12.45;92.51;100330.81;5018464;28;20021;-88
2023/03/23 10:15:14;;;;;;;4.63;1.77;;;;;;;12.55;92.35;100338.34;5031914;28;20050;-87
2023/03/23 10:17:49;;;;;;;3.90;1.60;;;;;;;12.67;91.44;100330.97;5033770;28;20048;-88
2023/03/23 10:20:46;;;;;;;3.35;1.63;;;;;;;12.78;90.98;100338.44;5033230;28;20037;-88
2023/03/23 10:23:42;;;;;;;5.18;1.90;;;;;;;12.89;89.67;100345.88;5033721;28;20025;-88
2023/03/23 10:26:36;;;;;;;5.65;1.67;;;;;;;13.04;90.08;100335.88;5031011;28;20037;-87
2023/03/23 10:29:19;;;;;;;4.72;1.60;;;;;;;12.98;89.49;100334.31;5032657;28;20022;-88
2023/03/23 10:32:22;;;;;;;2.67;1.58;;;;;;;13.02;88.90;100356.78;5033175;28;20052;-89
2023/03/23 10:35:23;;;;;;;5.00;2.03;;;;;;;13.15;87.95;100358.97;5032908;28;20053;-88
2023/03/23 10:38:06;;;;;;;3.67;1.65;;;;;;;13.13;86.01;100352.06;5032192;28;20029;-88
2023/03/23 10:40:34;;;;;;;3.85;2.15;;;;;;;13.08;86.37;100356.56;5033047;28;20029;-88
2023/03/23 10:43:01;;;;;;;2.72;1.85;;;;;;;13.09;86.75;100355.66;5032540;28;20032;-88
2023/03/23 10:45:34;;;;;;;5.35;1.98;;;;;;;13.34;86.78;100352.22;5033913;28;20079;-87
2023/03/23 10:48:21;;;;;;;5.85;2.10;;;;;;;13.37;85.43;100338.22;5036097;28;20026;-88
2023/03/23 10:50:52;;;;;;;4.50;1.80;;;;;;;13.49;86.26;100344.81;5036499;28;20366;-88
2023/03/23 10:53:28;;;;;;;8.43;2.22;;;;;;;13.60;85.42;100345.28;5037824;28;20072;-88
2023/03/23 10:55:54;;;;;;;5.00;1.90;;;;;;;13.59;85.66;100335.75;5036952;28;20026;-86
2023/03/23 10:58:38;;;;;;;2.42;1.60;;;;;;;13.78;84.82;100340.28;5032316;28;20042;-90
2023/03/23 11:01:04;;;;;;;5.75;2.05;;;;;;;13.69;83.31;100334.50;5037887;28;20036;-88
2023/03/23 11:03:32;;;;;;;3.20;1.75;;;;;;;13.85;83.76;100339.13;5051016;28;20037;-89
2023/03/23 11:06:15;;;;;;;;;;;;;;;;;;;;;
2023/03/23 11:09:03;;;;;;;3.78;1.70;;;;;;;14.02;84.21;100347.19;5035165;28;20359;-91
2023/03/23 11:11:48;;;;;;;3.55;1.60;;;;;;;13.96;83.03;100328.31;5038375;28;20021;-90
2023/03/23 11:14:27;;;;;;;3.42;1.50;;;;;;;14.08;84.04;100343.50;5038273;28;20030;-90
2023/03/23 11:17:24;;;;;;;1.30;1.20;;;;;;;14.31;84.58;100333.94;5037757;28;20424;-92
2023/03/23 11:19:55;;;;;;;1.08;0.95;;;;;;;14.51;82.88;100333.16;5037229;28;20040;-90
2023/03/23 11:22:40;;;;;;;4.05;1.50;;;;;;;14.67;76.54;100321.22;5037849;28;20595;-91
2023/03/23 11:25:06;;;;;;;7.38;1.90;;;;;;;14.69;76.16;100336.84;5038003;28;20029;-91
2023/03/23 11:27:43;;;;;;;3.17;1.60;;;;;;;14.65;78.13;100343.88;5037792;28;20063;-90
2023/03/23 11:30:24;;;;;;;4.85;1.70;;;;;;;14.75;78.90;100357.47;5036280;28;20116;-89
2023/03/23 11:32:52;;;;;;;4.43;1.83;;;;;;;14.79;79.16;100353.84;5033629;28;20046;-89
2023/03/23 11:35:32;;;;;;;5.70;1.80;;;;;;;14.62;75.54;100354.47;5037139;28;20040;-88
2023/03/23 11:37:58;;;;;;;3.63;1.70;;;;;;;14.29;76.46;100341.84;5035664;28;20049;-88
2023/03/23 11:40:27;;;;;;;3.53;1.40;;;;;;;14.21;75.92;100354.31;5036012;28;20470;-89
2023/03/23 11:43:13;;;;;;;5.07;1.88;;;;;;;14.18;78.68;100357.06;5036316;28;20037;-88
2023/03/23 11:45:56;;;;;;;4.37;1.67;;;;;;;14.10;77.88;100356.50;5036325;28;20072;-88
2023/03/23 11:48:51;;;;;;;4.63;1.70;;;;;;;14.08;78.79;100355.69;5035231;28;20032;-88
2023/03/23 11:51:38;;;;;;;4.28;1.60;;;;;;;14.04;78.25;100366.25;5032653;28;20053;-88
2023/03/23 11:54:31;;;;;;;4.22;1.88;;;;;;;14.21;77.78;100362.16;5016553;28;20419;-88
2023/03/23 11:57:11;;;;;;;2.90;1.35;;;;;;;14.46;80.32;100356.84;5019081;28;20030;-88
2023/03/23 12:00:11;;;;;;;3.55;1.27;;;;;;;14.77;77.03;100346.94;5035646;28;20041;-87
2023/03/23 12:02:56;;;;;;;4.90;1.60;;;;;;;14.87;77.58;100342.22;5034421;28;20049;-87
2023/03/23 12:05:33;;;;;;;2.58;1.40;;;;;;;15.05;78.24;100336.19;5034480;28;20033;-88
2023/03/23 12:11:27;;;;;;;1.75;1.35;;;;;;;15.31;77.18;100320.34;5036113;28;20523;-86
2023/03/23 12:14:17;;;;;;;3.28;1.60;;;;;;;15.52;74.52;100308.94;5035775;28;20030;-88
2023/03/23 12:17:05;;;;;;;3.22;1.55;;;;;;;15.66;74.86;100323.13;5037866;28;20026;-87
2023/03/23 12:19:42;;;;;;;3.35;1.38;;;;;;;15.79;75.39;100318.22;5037809;28;20379;-88
2023/03/23 12:25:41;;;;;;;3.45;1.50;;;;;;;16.13;72.39;100338.47;5047526;22;20080;-88
2023/03/23 12:28:20;;;;;;;4.53;1.80;;;;;;;16.11;70.02;100344.72;5033791;28;20049;-86